Time;durP1;ratioP1;P1;durP2;ratioP2;P2;SDS_P1;SDS_P2;PMS_P1;PMS_P2;Temp;Humidity;BMP_temperature;BMP_pressure;BME280_temperature;BME280_humidity;BME280_pressure;Samples;Min_cycle;Max_cycle;Signal;HPM_P1;HPM_P2
2021/04/30 00:02:23;;;;;;;6.90;4.03;;;;;;;;;;5095727;28;20063;-58
2021/04/30 00:04:49;;;;;;;5.22;4.03;;;;;;;;;;5095467;28;20022;-57
2021/04/30 00:07:15;;;;;;;4.88;4.45;;;;;;;;;;5094453;28;20020;-58
2021/04/30 00:09:41;;;;;;;5.97;4.63;;;;;;;;;;5096006;28;20020;-58
2021/04/30 00:12:08;;;;;;;5.30;4.47;;;;;;;;;;5094006;28;20028;-58
2021/04/30 00:14:36;;;;;;;4.95;4.55;;;;;;;;;;5095912;28;20051;-58
2021/04/30 00:17:02;;;;;;;4.85;3.97;;;;;;;;;;5094174;28;20385;-57
2021/04/30 00:19:28;;;;;;;5.28;4.40;;;;;;;;;;5094560;28;20059;-58
2021/04/30 00:21:54;;;;;;;6.20;5.10;;;;;;;;;;5095015;28;20462;-57
2021/04/30 00:24:20;;;;;;;4.57;4.07;;;;;;;;;;5076715;28;20024;-57
2021/04/30 00:26:46;;;;;;;4.97;4.40;;;;;;;;;;5094068;28;20026;-57
2021/04/30 00:29:13;;;;;;;5.88;5.13;;;;;;;;;;5093498;28;20523;-58
2021/04/30 00:31:42;;;;;;;6.07;4.63;;;;;;;;;;5094084;28;20039;-58
2021/04/30 00:34:08;;;;;;;5.53;5.00;;;;;;;;;;5094782;28;20024;-58
2021/04/30 00:36:35;;;;;;;6.13;4.93;;;;;;;;;;5076781;28;20425;-57
2021/04/30 00:39:02;;;;;;;7.38;4.55;;;;;;;;;;5093994;28;20511;-57
2021/04/30 00:41:29;;;;;;;6.30;5.47;;;;;;;;;;5094740;28;20401;-57
2021/04/30 00:43:57;;;;;;;5.90;4.65;;;;;;;;;;5093758;28;20028;-58
2021/04/30 00:46:24;;;;;;;6.50;5.57;;;;;;;;;;5094318;28;20043;-57
2021/04/30 00:48:50;;;;;;;7.63;6.05;;;;;;;;;;5094481;28;20020;-58
2021/04/30 00:51:16;;;;;;;5.50;4.80;;;;;;;;;;5094889;28;20046;-58
2021/04/30 00:53:42;;;;;;;5.60;4.35;;;;;;;;;;5093045;28;20048;-58
2021/04/30 00:56:08;;;;;;;6.10;5.50;;;;;;;;;;5093517;28;20374;-58
2021/04/30 00:58:35;;;;;;;7.15;5.00;;;;;;;;;;5094223;28;20048;-57
2021/04/30 01:01:01;;;;;;;8.63;5.28;;;;;;;;;;5076031;28;20131;-58
2021/04/30 01:03:28;;;;;;;5.40;4.35;;;;;;;;;;5092804;28;20357;-58
2021/04/30 01:05:54;;;;;;;6.20;5.40;;;;;;;;;;5092837;28;20044;-57
2021/04/30 01:08:20;;;;;;;6.43;5.50;;;;;;;;;;5094525;28;20081;-57
2021/04/30 01:10:46;;;;;;;7.05;6.25;;;;;;;;;;5092369;28;20035;-57
2021/04/30 01:13:15;;;;;;;5.82;4.75;;;;;;;;;;5093953;28;20024;-58
2021/04/30 01:15:41;;;;;;;6.38;5.72;;;;;;;;;;5094302;28;20469;-56
2021/04/30 01:18:07;;;;;;;6.93;5.88;;;;;;;;;;5094789;28;20024;-57
2021/04/30 01:20:34;;;;;;;6.40;5.80;;;;;;;;;;5094083;28;20031;-58
2021/04/30 01:23:02;;;;;;;5.63;5.03;;;;;;;;;;5093774;28;20031;-57
2021/04/30 01:25:37;;;;;;;9.50;5.85;;;;;;;;;;5093955;28;20093;-58
2021/04/30 01:28:04;;;;;;;6.15;5.50;;;;;;;;;;5092306;28;20366;-56
2021/04/30 01:30:33;;;;;;;7.25;5.35;;;;;;;;;;5093521;28;20056;-57
2021/04/30 01:33:02;;;;;;;6.55;5.05;;;;;;;;;;5093483;28;20028;-57
2021/04/30 01:35:29;;;;;;;6.43;5.05;;;;;;;;;;5092336;28;20495;-56
2021/04/30 01:37:56;;;;;;;7.20;5.68;;;;;;;;;;5092169;28;20457;-58
2021/04/30 01:40:24;;;;;;;6.90;5.40;;;;;;;;;;5094488;28;20028;-58
2021/04/30 01:43:05;;;;;;;8.70;5.97;;;;;;;;;;5093611;28;20085;-58
2021/04/30 01:45:40;;;;;;;8.05;5.63;;;;;;;;;;5093269;28;20024;-58
2021/04/30 01:48:12;;;;;;;7.63;5.90;;;;;;;;;;5094101;28;20428;-57
2021/04/30 01:50:42;;;;;;;6.80;6.10;;;;;;;;;;5094125;28;20392;-57
2021/04/30 01:53:08;;;;;;;6.93;5.15;;;;;;;;;;5092442;28;20047;-58
2021/04/30 01:55:37;;;;;;;7.15;5.15;;;;;;;;;;5094082;28;20051;-58
2021/04/30 01:58:04;;;;;;;6.32;5.40;;;;;;;;;;5093526;28;20119;-57
2021/04/30 02:00:35;;;;;;;5.82;5.22;;;;;;;;;;5094019;28;20021;-58
2021/04/30 02:03:01;;;;;;;6.40;5.78;;;;;;;;;;5091956;28;20469;-57
2021/04/30 02:05:29;;;;;;;6.93;4.95;;;;;;;;;;5093578;28;20028;-58
2021/04/30 02:07:55;;;;;;;8.45;5.47;;;;;;;;;;5093409;28;20099;-57
2021/04/30 02:10:25;;;;;;;6.32;5.25;;;;;;;;;;5092522;28;20036;-58
2021/04/30 02:12:54;;;;;;;8.48;5.97;;;;;;;;;;5075782;28;20102;-57
2021/04/30 02:15:22;;;;;;;6.55;5.18;;;;;;;;;;5093375;28;20032;-58
2021/04/30 02:17:51;;;;;;;5.82;5.22;;;;;;;;;;5093021;28;20033;-58
2021/04/30 02:20:18;;;;;;;6.97;5.78;;;;;;;;;;5092436;28;20472;-58
2021/04/30 02:22:47;;;;;;;7.20;6.03;;;;;;;;;;5096004;28;20032;-58
2021/04/30 02:25:14;;;;;;;7.75;5.65;;;;;;;;;;5096128;28;20115;-58
2021/04/30 02:27:41;;;;;;;7.18;6.43;;;;;;;;;;5095808;28;20538;-58
2021/04/30 02:30:07;;;;;;;7.38;5.80;;;;;;;;;;5095806;28;20067;-58
2021/04/30 02:32:34;;;;;;;9.32;6.53;;;;;;;;;;5096244;28;20032;-58
2021/04/30 02:35:01;;;;;;;7.47;6.38;;;;;;;;;;5096207;28;20035;-58
2021/04/30 02:37:27;;;;;;;8.10;6.30;;;;;;;;;;5095863;28;20031;-58
2021/04/30 02:39:53;;;;;;;8.07;6.45;;;;;;;;;;5098266;28;20465;-58
2021/04/30 02:42:21;;;;;;;8.35;6.47;;;;;;;;;;5097216;28;20029;-57
2021/04/30 02:44:50;;;;;;;7.65;6.30;;;;;;;;;;5097119;28;20094;-56
2021/04/30 02:47:20;;;;;;;10.32;6.03;;;;;;;;;;5097904;28;20020;-57
2021/04/30 02:49:47;;;;;;;8.57;6.20;;;;;;;;;;5097500;28;20454;-58
2021/04/30 02:52:15;;;;;;;10.93;6.45;;;;;;;;;;5097077;28;20093;-58
2021/04/30 02:54:41;;;;;;;12.32;7.13;;;;;;;;;;5095231;28;20067;-58
2021/04/30 02:57:07;;;;;;;8.68;7.65;;;;;;;;;;5095747;28;20111;-58
2021/04/30 02:59:36;;;;;;;7.78;6.55;;;;;;;;;;5097011;28;20044;-58
2021/04/30 03:02:05;;;;;;;9.30;6.80;;;;;;;;;;5096905;28;20107;-57
2021/04/30 03:04:32;;;;;;;10.13;7.43;;;;;;;;;;5096535;28;20023;-58
2021/04/30 03:06:58;;;;;;;9.27;6.55;;;;;;;;;;5097109;28;20145;-58
2021/04/30 03:09:24;;;;;;;8.00;6.68;;;;;;;;;;5097436;28;20110;-58
2021/04/30 03:11:50;;;;;;;7.93;6.80;;;;;;;;;;5095818;28;20032;-57
2021/04/30 03:14:19;;;;;;;8.27;7.32;;;;;;;;;;5096559;28;20103;-57
2021/04/30 03:16:45;;;;;;;7.50;6.07;;;;;;;;;;5094970;28;20119;-57
2021/04/30 03:19:11;;;;;;;10.48;8.38;;;;;;;;;;5094854;28;20034;-58
2021/04/30 03:21:37;;;;;;;9.90;7.47;;;;;;;;;;5095272;28;20032;-57
2021/04/30 03:24:04;;;;;;;9.15;8.07;;;;;;;;;;5095409;28;20032;-58
2021/04/30 03:26:30;;;;;;;9.55;7.50;;;;;;;;;;5078473;28;20028;-58
2021/04/30 03:28:59;;;;;;;10.68;7.35;;;;;;;;;;5095940;28;20028;-57
2021/04/30 03:31:25;;;;;;;8.00;7.25;;;;;;;;;;5095552;28;20039;-57
2021/04/30 03:33:54;;;;;;;8.35;7.00;;;;;;;;;;5094761;28;20024;-58
2021/04/30 03:36:20;;;;;;;7.93;7.00;;;;;;;;;;5094241;28;20024;-58
2021/04/30 03:38:47;;;;;;;8.10;7.28;;;;;;;;;;5095684;28;20053;-58
2021/04/30 03:41:13;;;;;;;8.38;7.55;;;;;;;;;;5096182;28;20036;-58
2021/04/30 03:43:42;;;;;;;10.10;7.45;;;;;;;;;;5095707;28;20030;-57
2021/04/30 03:46:11;;;;;;;11.43;8.63;;;;;;;;;;5096073;28;20056;-57
2021/04/30 03:48:38;;;;;;;8.18;7.38;;;;;;;;;;5095768;28;20032;-58
2021/04/30 03:51:04;;;;;;;9.70;7.15;;;;;;;;;;5094580;28;20450;-58
2021/04/30 03:53:30;;;;;;;8.95;7.90;;;;;;;;;;5095736;28;20380;-57
2021/04/30 03:56:02;;;;;;;10.45;7.65;;;;;;;;;;5094440;28;20032;-58
2021/04/30 03:58:28;;;;;;;11.88;9.45;;;;;;;;;;5094677;28;20064;-57
2021/04/30 04:00:54;;;;;;;8.30;7.47;;;;;;;;;;5096210;28;20039;-57
2021/04/30 04:03:23;;;;;;;9.07;8.18;;;;;;;;;;5095575;28;20028;-57
2021/04/30 04:05:54;;;;;;;9.40;8.40;;;;;;;;;;5095287;28;20032;-58
2021/04/30 04:08:20;;;;;;;14.52;7.85;;;;;;;;;;5095314;28;20056;-58
2021/04/30 04:10:50;;;;;;;9.60;8.27;;;;;;;;;;5077407;28;20039;-58
2021/04/30 04:13:17;;;;;;;9.82;7.80;;;;;;;;;;5093559;28;20035;-58
2021/04/30 04:15:44;;;;;;;10.35;8.35;;;;;;;;;;5095320;28;20031;-58
2021/04/30 04:18:10;;;;;;;8.52;7.55;;;;;;;;;;5095227;28;20024;-58
2021/04/30 04:20:38;;;;;;;9.68;8.70;;;;;;;;;;5095799;28;20115;-57
2021/04/30 04:23:11;;;;;;;8.93;7.70;;;;;;;;;;5094531;28;20024;-57
2021/04/30 04:25:37;;;;;;;9.40;8.50;;;;;;;;;;5095042;28;20131;-58
2021/04/30 04:28:04;;;;;;;8.93;8.02;;;;;;;;;;5094769;28;20055;-56
2021/04/30 04:30:30;;;;;;;9.10;8.18;;;;;;;;;;5094741;28;20492;-57
2021/04/30 04:32:59;;;;;;;10.32;8.00;;;;;;;;;;5094416;28;20484;-57
2021/04/30 04:35:25;;;;;;;12.18;7.75;;;;;;;;;;5094817;28;20021;-57
2021/04/30 04:37:51;;;;;;;9.40;8.48;;;;;;;;;;5094398;28;20081;-58
2021/04/30 04:40:17;;;;;;;9.05;8.15;;;;;;;;;;5093075;28;20119;-57
2021/04/30 04:42:44;;;;;;;10.45;8.32;;;;;;;;;;5093206;28;20024;-57
2021/04/30 04:45:11;;;;;;;10.02;8.68;;;;;;;;;;5093097;28;20118;-57
2021/04/30 04:47:40;;;;;;;10.95;8.25;;;;;;;;;;5093798;28;20024;-57
2021/04/30 04:50:06;;;;;;;8.73;7.35;;;;;;;;;;5094117;28;20376;-58
2021/04/30 04:52:33;;;;;;;9.77;8.30;;;;;;;;;;5092934;28;20122;-58
2021/04/30 04:54:59;;;;;;;9.35;7.68;;;;;;;;;;5075680;28;20431;-57
2021/04/30 04:57:25;;;;;;;12.20;9.75;;;;;;;;;;5093167;28;20028;-58
2021/04/30 04:59:51;;;;;;;8.98;8.00;;;;;;;;;;5093048;28;20028;-57
2021/04/30 05:02:17;;;;;;;10.02;8.40;;;;;;;;;;5076147;28;20488;-56
2021/04/30 05:04:43;;;;;;;10.85;7.78;;;;;;;;;;5093904;28;20139;-57
2021/04/30 05:07:09;;;;;;;9.77;7.45;;;;;;;;;;5094471;28;20024;-57
2021/04/30 05:09:36;;;;;;;9.18;7.40;;;;;;;;;;5094001;28;20500;-58
2021/04/30 05:12:02;;;;;;;9.07;7.85;;;;;;;;;;5093876;28;20031;-57
2021/04/30 05:14:28;;;;;;;8.77;7.88;;;;;;;;;;5092562;28;20031;-58
2021/04/30 05:16:55;;;;;;;10.82;8.23;;;;;;;;;;5094478;28;20453;-57
2021/04/30 05:19:24;;;;;;;10.30;7.55;;;;;;;;;;5094034;28;20355;-58
2021/04/30 05:21:52;;;;;;;7.55;6.80;;;;;;;;;;5094570;28;20362;-58
2021/04/30 05:24:18;;;;;;;8.43;7.40;;;;;;;;;;5093798;28;20028;-58
2021/04/30 05:26:48;;;;;;;10.63;8.10;;;;;;;;;;5093193;28;20346;-58
2021/04/30 05:29:15;;;;;;;8.75;7.85;;;;;;;;;;5075981;28;20055;-58
2021/04/30 05:31:41;;;;;;;8.70;7.43;;;;;;;;;;5091774;28;20378;-56
2021/04/30 05:34:12;;;;;;;13.35;9.18;;;;;;;;;;5075200;28;20032;-57
2021/04/30 05:36:39;;;;;;;13.38;8.88;;;;;;;;;;5093359;28;20031;-57
2021/04/30 05:39:05;;;;;;;11.75;9.05;;;;;;;;;;5094188;28;20050;-57
2021/04/30 05:41:31;;;;;;;8.57;7.68;;;;;;;;;;5093408;28;20069;-58
2021/04/30 05:43:57;;;;;;;9.40;8.43;;;;;;;;;;5093220;28;20031;-58
2021/04/30 05:46:27;;;;;;;11.65;8.63;;;;;;;;;;5092037;28;20056;-57
2021/04/30 05:48:56;;;;;;;13.88;8.90;;;;;;;;;;5093402;28;20024;-58
2021/04/30 05:51:25;;;;;;;7.82;7.00;;;;;;;;;;5093251;28;20564;-57
2021/04/30 05:53:51;;;;;;;10.02;8.23;;;;;;;;;;5091749;28;20040;-56
2021/04/30 05:56:21;;;;;;;11.27;8.05;;;;;;;;;;5092684;28;20024;-57
2021/04/30 05:58:50;;;;;;;9.48;8.48;;;;;;;;;;5093058;28;20031;-57
2021/04/30 06:01:17;;;;;;;9.98;8.43;;;;;;;;;;5091640;28;20057;-57
2021/04/30 06:03:43;;;;;;;10.73;9.02;;;;;;;;;;5092702;28;20043;-58
2021/04/30 06:06:09;;;;;;;10.82;8.75;;;;;;;;;;5093418;28;20382;-58
2021/04/30 06:08:35;;;;;;;12.02;9.10;;;;;;;;;;5093453;28;20039;-55
2021/04/30 06:11:02;;;;;;;11.05;8.07;;;;;;;;;;5091948;28;20123;-56
2021/04/30 06:13:28;;;;;;;14.90;8.05;;;;;;;;;;5092881;28;20055;-58
2021/04/30 06:15:57;;;;;;;11.20;8.82;;;;;;;;;;5093010;28;20054;-58
2021/04/30 06:18:26;;;;;;;10.50;8.20;;;;;;;;;;5093684;28;20032;-57
2021/04/30 06:20:55;;;;;;;11.98;8.52;;;;;;;;;;5092755;28;20038;-59
2021/04/30 06:23:21;;;;;;;11.63;7.70;;;;;;;;;;5091801;28;20078;-57
2021/04/30 06:25:48;;;;;;;9.10;7.78;;;;;;;;;;5091779;28;20028;-57
2021/04/30 06:28:16;;;;;;;11.38;7.70;;;;;;;;;;5093124;28;20106;-55
2021/04/30 06:30:46;;;;;;;9.48;8.38;;;;;;;;;;5091569;28;20154;-57
2021/04/30 06:33:12;;;;;;;11.10;8.10;;;;;;;;;;5093971;28;20021;-57
2021/04/30 06:35:41;;;;;;;9.10;7.80;;;;;;;;;;5074966;28;20020;-58
2021/04/30 06:38:08;;;;;;;10.48;8.73;;;;;;;;;;5093152;28;20104;-57
2021/04/30 06:40:34;;;;;;;8.40;7.38;;;;;;;;;;5093375;28;20035;-56
2021/04/30 06:43:15;;;;;;;10.40;7.57;;;;;;;;;;5092800;28;20111;-58
2021/04/30 06:45:41;;;;;;;8.38;6.97;;;;;;;;;;5078131;28;20421;-58
2021/04/30 06:48:08;;;;;;;9.18;7.57;;;;;;;;;;5093527;28;20028;-58
2021/04/30 06:50:39;;;;;;;9.30;8.38;;;;;;;;;;5093675;28;20465;-57
2021/04/30 06:53:08;;;;;;;8.52;7.47;;;;;;;;;;5091499;28;20040;-59
2021/04/30 06:55:35;;;;;;;13.02;7.95;;;;;;;;;;5092367;28;20462;-59
2021/04/30 06:58:03;;;;;;;9.48;7.70;;;;;;;;;;5092163;28;20042;-59
2021/04/30 07:00:32;;;;;;;9.43;7.18;;;;;;;;;;5093241;28;20032;-58
2021/04/30 07:02:58;;;;;;;11.25;8.00;;;;;;;;;;5092662;28;20050;-58
2021/04/30 07:05:24;;;;;;;14.32;7.28;;;;;;;;;;5092307;28;20452;-60
2021/04/30 07:07:57;;;;;;;9.80;7.78;;;;;;;;;;5095654;28;20073;-59
2021/04/30 07:10:30;;;;;;;8.73;7.53;;;;;;;;;;5094697;28;20115;-59
2021/04/30 07:12:57;;;;;;;10.18;8.15;;;;;;;;;;5096981;28;20024;-58
2021/04/30 07:15:23;;;;;;;10.73;8.13;;;;;;;;;;5094894;28;20035;-58
2021/04/30 07:17:49;;;;;;;13.48;7.57;;;;;;;;;;5078383;28;20020;-59
2021/04/30 07:20:18;;;;;;;8.80;8.00;;;;;;;;;;5095645;28;20034;-59
2021/04/30 07:22:47;;;;;;;10.40;8.55;;;;;;;;;;5078429;28;20613;-59
2021/04/30 07:25:23;;;;;;;9.57;8.02;;;;;;;;;;5096167;28;20016;-59
2021/04/30 07:27:49;;;;;;;7.93;7.13;;;;;;;;;;5096345;28;20047;-59
2021/04/30 07:30:18;;;;;;;12.48;8.27;;;;;;;;;;5095117;28;20027;-59
2021/04/30 07:32:49;;;;;;;9.48;7.72;;;;;;;;;;5096259;28;20107;-58
2021/04/30 07:35:27;;;;;;;8.93;8.02;;;;;;;;;;5096531;28;20027;-57
2021/04/30 07:37:54;;;;;;;8.45;7.63;;;;;;;;;;5096827;28;20088;-57
2021/04/30 07:40:23;;;;;;;9.85;7.65;;;;;;;;;;5096514;28;20113;-57
2021/04/30 07:42:56;;;;;;;9.40;8.18;;;;;;;;;;5095654;28;20020;-57
2021/04/30 07:45:24;;;;;;;9.95;8.30;;;;;;;;;;5095885;28;20086;-57
2021/04/30 07:47:53;;;;;;;9.27;8.27;;;;;;;;;;5094322;28;20412;-57
2021/04/30 07:50:22;;;;;;;8.52;7.68;;;;;;;;;;5094347;28;20039;-58
2021/04/30 07:52:49;;;;;;;9.82;8.43;;;;;;;;;;5095826;28;20034;-57
2021/04/30 07:55:18;;;;;;;10.57;8.70;;;;;;;;;;5096250;28;20362;-58
2021/04/30 07:57:44;;;;;;;10.73;8.80;;;;;;;;;;5095703;28;20024;-59
2021/04/30 08:00:11;;;;;;;11.13;8.88;;;;;;;;;;5095675;28;20024;-58
2021/04/30 08:02:37;;;;;;;11.90;9.20;;;;;;;;;;5094580;28;20024;-58
2021/04/30 08:05:11;;;;;;;11.05;7.75;;;;;;;;;;5095973;28;20028;-58
2021/04/30 08:07:38;;;;;;;9.43;8.43;;;;;;;;;;5095944;28;20028;-58
2021/04/30 08:10:05;;;;;;;11.85;8.38;;;;;;;;;;5093862;28;20031;-58
2021/04/30 08:12:31;;;;;;;11.35;7.97;;;;;;;;;;5093388;28;20068;-58
2021/04/30 08:14:58;;;;;;;9.10;7.82;;;;;;;;;;5095341;28;20103;-58
2021/04/30 08:17:24;;;;;;;12.68;8.18;;;;;;;;;;5077156;28;20119;-58
2021/04/30 08:19:57;;;;;;;9.63;8.60;;;;;;;;;;5093888;28;20035;-58
2021/04/30 08:22:24;;;;;;;10.95;8.80;;;;;;;;;;5095143;28;20040;-58
2021/04/30 08:24:51;;;;;;;10.10;7.85;;;;;;;;;;5095111;28;20099;-58
2021/04/30 08:27:19;;;;;;;9.60;7.38;;;;;;;;;;5093754;28;20032;-58
2021/04/30 08:29:52;;;;;;;10.60;8.05;;;;;;;;;;5093931;28;20039;-58
2021/04/30 08:32:20;;;;;;;15.20;9.35;;;;;;;;;;5093680;28;20047;-58
2021/04/30 08:34:46;;;;;;;9.13;8.23;;;;;;;;;;5076493;28;20040;-58
2021/04/30 08:37:13;;;;;;;10.20;8.48;;;;;;;;;;5095491;28;20028;-58
2021/04/30 08:39:48;;;;;;;9.23;8.35;;;;;;;;;;5093284;28;20127;-58
2021/04/30 08:42:16;;;;;;;11.80;8.77;;;;;;;;;;5094472;28;20054;-58
2021/04/30 08:44:42;;;;;;;12.13;8.38;;;;;;;;;;5092562;28;20031;-58
2021/04/30 08:47:15;;;;;;;9.93;8.38;;;;;;;;;;5093956;28;20372;-58
2021/04/30 08:49:44;;;;;;;10.23;8.15;;;;;;;;;;5093235;28;20024;-58
2021/04/30 08:52:16;;;;;;;10.05;7.95;;;;;;;;;;5076266;28;20119;-58
2021/04/30 08:54:42;;;;;;;9.55;8.65;;;;;;;;;;5093283;28;20044;-58
2021/04/30 08:57:10;;;;;;;9.98;7.93;;;;;;;;;;5094646;28;20031;-58
2021/04/30 08:59:39;;;;;;;11.48;7.80;;;;;;;;;;5093508;28;20031;-58
2021/04/30 09:02:10;;;;;;;9.95;8.95;;;;;;;;;;5094738;28;20039;-58
2021/04/30 09:04:36;;;;;;;10.85;8.95;;;;;;;;;;5076288;28;20028;-58
2021/04/30 09:07:34;;;;;;;9.63;8.35;;;;;;;;;;5092759;28;20028;-58
2021/04/30 09:10:03;;;;;;;9.82;8.82;;;;;;;;;;5082963;28;20089;-58
2021/04/30 09:12:30;;;;;;;9.95;8.50;;;;;;;;;;5092861;28;20040;-60
2021/04/30 09:15:00;;;;;;;13.18;8.80;;;;;;;;;;5094027;28;20487;-59
2021/04/30 09:17:29;;;;;;;9.48;8.48;;;;;;;;;;5094209;28;20020;-60
2021/04/30 09:19:59;;;;;;;9.93;8.75;;;;;;;;;;5093319;28;20050;-59
2021/04/30 09:22:37;;;;;;;8.63;7.70;;;;;;;;;;5094233;28;20047;-59
2021/04/30 09:25:05;;;;;;;9.95;7.95;;;;;;;;;;5093495;28;20032;-60
2021/04/30 09:27:43;;;;;;;12.77;8.43;;;;;;;;;;5094009;28;20052;-59
2021/04/30 09:30:15;;;;;;;10.02;8.48;;;;;;;;;;5094419;28;20031;-60
2021/04/30 09:32:59;;;;;;;10.55;9.05;;;;;;;;;;5092747;28;20123;-60
2021/04/30 09:35:28;;;;;;;11.27;8.48;;;;;;;;;;5093760;28;20023;-59
2021/04/30 09:37:57;;;;;;;8.98;8.07;;;;;;;;;;5093451;28;20016;-59
2021/04/30 09:40:31;;;;;;;10.50;8.93;;;;;;;;;;5094487;28;20057;-57
2021/04/30 09:43:04;;;;;;;10.02;8.65;;;;;;;;;;5091984;28;20047;-60
2021/04/30 09:45:31;;;;;;;10.95;8.68;;;;;;;;;;5093911;28;20158;-59
2021/04/30 09:47:59;;;;;;;10.38;7.40;;;;;;;;;;5093074;28;20356;-57
2021/04/30 09:50:28;;;;;;;10.38;9.27;;;;;;;;;;5092867;28;20024;-58
2021/04/30 09:52:55;;;;;;;10.77;8.88;;;;;;;;;;5092934;28;20508;-57
2021/04/30 09:55:22;;;;;;;11.82;8.45;;;;;;;;;;5092018;28;20466;-59
2021/04/30 09:57:51;;;;;;;10.02;9.02;;;;;;;;;;5093702;28;20017;-60
2021/04/30 10:00:18;;;;;;;10.02;8.68;;;;;;;;;;5093973;28;20531;-58
2021/04/30 10:02:47;;;;;;;10.48;9.35;;;;;;;;;;5075673;28;20042;-58
2021/04/30 10:05:17;;;;;;;8.57;7.03;;;;;;;;;;5093661;28;20055;-57
2021/04/30 10:07:44;;;;;;;10.32;9.32;;;;;;;;;;5094064;28;20032;-58
2021/04/30 10:10:10;;;;;;;14.77;9.63;;;;;;;;;;5092872;28;20089;-59
2021/04/30 10:12:41;;;;;;;11.30;9.65;;;;;;;;;;5092296;28;20489;-59
2021/04/30 10:15:14;;;;;;;10.85;9.77;;;;;;;;;;5093566;28;20025;-59
2021/04/30 10:17:41;;;;;;;13.07;10.57;;;;;;;;;;5093214;28;20058;-59
2021/04/30 10:20:08;;;;;;;11.45;8.95;;;;;;;;;;5092750;28;20035;-59
2021/04/30 10:22:42;;;;;;;9.55;7.32;;;;;;;;;;5093447;28;20020;-59
2021/04/30 10:25:10;;;;;;;12.65;10.95;;;;;;;;;;5093714;28;20102;-59
2021/04/30 10:27:44;;;;;;;11.88;10.20;;;;;;;;;;5091645;28;20028;-59
2021/04/30 10:30:20;;;;;;;13.13;10.95;;;;;;;;;;5092177;28;20024;-59
2021/04/30 10:33:09;;;;;;;13.43;9.75;;;;;;;;;;5092343;28;20032;-58
2021/04/30 10:36:02;;;;;;;13.50;11.60;;;;;;;;;;5091911;28;20027;-57
2021/04/30 10:38:29;;;;;;;13.70;12.30;;;;;;;;;;5093530;28;20028;-58
2021/04/30 10:41:04;;;;;;;13.63;11.70;;;;;;;;;;5091810;28;20032;-58
2021/04/30 10:43:33;;;;;;;14.68;11.30;;;;;;;;;;5094962;28;20107;-59
2021/04/30 10:46:02;;;;;;;17.17;12.85;;;;;;;;;;5097128;28;20020;-60
2021/04/30 10:48:30;;;;;;;13.88;10.43;;;;;;;;;;5096993;28;20059;-60
2021/04/30 10:51:07;;;;;;;15.70;13.15;;;;;;;;;;5095549;28;20043;-59
2021/04/30 10:53:36;;;;;;;15.23;13.60;;;;;;;;;;5096709;28;20523;-60
2021/04/30 10:56:22;;;;;;;16.20;13.70;;;;;;;;;;5097331;28;20093;-60
2021/04/30 10:58:51;;;;;;;14.77;12.43;;;;;;;;;;5095099;28;20024;-59
2021/04/30 11:01:23;;;;;;;18.45;15.10;;;;;;;;;;5095404;28;20422;-60
2021/04/30 11:04:07;;;;;;;15.15;12.88;;;;;;;;;;5095390;28;20123;-60
2021/04/30 11:06:40;;;;;;;18.75;15.43;;;;;;;;;;5096424;28;20032;-59
2021/04/30 11:09:16;;;;;;;18.42;14.52;;;;;;;;;;5096446;28;20024;-60
2021/04/30 11:11:45;;;;;;;18.10;14.45;;;;;;;;;;5097068;28;20040;-60
2021/04/30 11:14:31;;;;;;;17.35;15.05;;;;;;;;;;5095661;28;20435;-60
2021/04/30 11:17:01;;;;;;;13.82;9.52;;;;;;;;;;5095125;28;20032;-60
2021/04/30 11:19:44;;;;;;;18.33;15.95;;;;;;;;;;5095721;28;20020;-59
2021/04/30 11:22:12;;;;;;;17.85;13.23;;;;;;;;;;5078624;28;20035;-59
2021/04/30 11:24:42;;;;;;;15.23;13.23;;;;;;;;;;5096127;28;20024;-59
2021/04/30 11:27:22;;;;;;;16.00;13.18;;;;;;;;;;5094793;28;20064;-59
2021/04/30 11:29:48;;;;;;;16.23;14.48;;;;;;;;;;5095585;28;20408;-60
2021/04/30 11:32:37;;;;;;;17.20;14.68;;;;;;;;;;5096124;28;20161;-59
2021/04/30 11:35:04;;;;;;;16.90;14.90;;;;;;;;;;5096141;28;20039;-59
2021/04/30 11:37:34;;;;;;;16.88;14.68;;;;;;;;;;5096151;28;20085;-59
2021/04/30 11:40:03;;;;;;;18.15;13.70;;;;;;;;;;5096603;28;20059;-59
2021/04/30 11:42:36;;;;;;;15.10;13.40;;;;;;;;;;5096127;28;20355;-59
2021/04/30 11:45:03;;;;;;;17.65;15.68;;;;;;;;;;5095244;28;20093;-59
2021/04/30 11:47:30;;;;;;;17.48;15.60;;;;;;;;;;5094570;28;20031;-59
2021/04/30 11:50:03;;;;;;;18.17;16.30;;;;;;;;;;5096518;28;20120;-59
2021/04/30 11:52:36;;;;;;;19.83;15.07;;;;;;;;;;5095889;28;20474;-59
2021/04/30 11:55:10;;;;;;;20.92;16.42;;;;;;;;;;5093867;28;20046;-59
2021/04/30 11:57:37;;;;;;;19.35;13.20;;;;;;;;;;5095376;28;20038;-59
2021/04/30 12:00:05;;;;;;;15.75;14.10;;;;;;;;;;5094676;28;20039;-59
2021/04/30 12:02:38;;;;;;;16.20;13.98;;;;;;;;;;5077415;28;20029;-59
2021/04/30 12:05:05;;;;;;;18.50;14.75;;;;;;;;;;5094016;28;20032;-59
2021/04/30 12:07:34;;;;;;;15.65;13.80;;;;;;;;;;5095788;28;20028;-59
2021/04/30 12:10:03;;;;;;;16.40;13.23;;;;;;;;;;5095729;28;20039;-59
2021/04/30 12:12:32;;;;;;;19.25;14.15;;;;;;;;;;5095295;28;20039;-59
2021/04/30 12:15:03;;;;;;;22.33;14.52;;;;;;;;;;5095602;28;20377;-59
2021/04/30 12:17:33;;;;;;;16.23;14.57;;;;;;;;;;5095772;28;20347;-60
2021/04/30 12:20:19;;;;;;;15.73;13.65;;;;;;;;;;5093855;28;20052;-59
2021/04/30 12:22:48;;;;;;;17.85;13.88;;;;;;;;;;5094318;28;20080;-59
2021/04/30 12:25:23;;;;;;;19.35;15.13;;;;;;;;;;5093688;28;20089;-59
2021/04/30 12:27:51;;;;;;;18.77;15.30;;;;;;;;;;5094319;28;20032;-59
2021/04/30 12:30:35;;;;;;;17.25;13.95;;;;;;;;;;5095280;28;20024;-59
2021/04/30 12:33:07;;;;;;;21.70;15.68;;;;;;;;;;5095798;28;20021;-60
2021/04/30 12:35:36;;;;;;;20.42;13.77;;;;;;;;;;5094836;28;20028;-59
2021/04/30 12:38:02;;;;;;;17.80;14.95;;;;;;;;;;5095000;28;20031;-59
2021/04/30 12:40:38;;;;;;;17.33;14.98;;;;;;;;;;5095748;28;20024;-59
2021/04/30 12:43:11;;;;;;;16.73;14.77;;;;;;;;;;5093748;28;20099;-59
2021/04/30 12:45:43;;;;;;;13.80;12.48;;;;;;;;;;5093492;28;20429;-59
2021/04/30 12:48:12;;;;;;;16.52;14.02;;;;;;;;;;5095036;28;20016;-59
2021/04/30 12:50:42;;;;;;;17.67;14.20;;;;;;;;;;5095088;28;20039;-59
2021/04/30 12:53:08;;;;;;;15.88;12.82;;;;;;;;;;5094458;28;20108;-60
2021/04/30 12:55:44;;;;;;;14.50;13.00;;;;;;;;;;5094878;28;20016;-59
2021/04/30 12:58:18;;;;;;;22.10;14.60;;;;;;;;;;5093242;28;20028;-59
2021/04/30 13:01:03;;;;;;;17.00;13.93;;;;;;;;;;5095602;28;20032;-59
2021/04/30 13:04:04;;;;;;;17.75;13.90;;;;;;;;;;5095303;28;20028;-58
2021/04/30 13:06:38;;;;;;;15.73;13.88;;;;;;;;;;5031562;28;20025;-58
2021/04/30 13:09:08;;;;;;;19.05;13.30;;;;;;;;;;5081753;28;20576;-58
2021/04/30 13:11:42;;;;;;;12.53;11.23;;;;;;;;;;5094304;28;20084;-58
2021/04/30 13:14:09;;;;;;;18.52;14.40;;;;;;;;;;5077077;28;20270;-58
2021/04/30 13:16:46;;;;;;;15.80;14.15;;;;;;;;;;5092831;28;20054;-58
2021/04/30 13:19:18;;;;;;;19.38;14.25;;;;;;;;;;5092817;28;20055;-57
2021/04/30 13:21:48;;;;;;;15.73;13.35;;;;;;;;;;5092530;28;20028;-58
2021/04/30 13:24:19;;;;;;;15.00;13.50;;;;;;;;;;5092737;28;20028;-58
2021/04/30 13:27:14;;;;;;;15.73;14.13;;;;;;;;;;5092785;28;20032;-58
2021/04/30 13:29:44;;;;;;;13.25;11.57;;;;;;;;;;5065652;28;20031;-58
2021/04/30 13:32:13;;;;;;;16.45;12.98;;;;;;;;;;5092747;28;20024;-58
2021/04/30 13:34:42;;;;;;;16.70;14.82;;;;;;;;;;5092029;28;20489;-58
2021/04/30 13:37:15;;;;;;;15.82;14.07;;;;;;;;;;5092495;28;20058;-58
2021/04/30 13:39:47;;;;;;;15.65;13.88;;;;;;;;;;5093995;28;20024;-58
2021/04/30 13:42:36;;;;;;;17.27;15.43;;;;;;;;;;5094029;28;20028;-58
2021/04/30 13:45:06;;;;;;;19.25;15.73;;;;;;;;;;5085402;28;20036;-58
2021/04/30 13:47:36;;;;;;;18.77;16.25;;;;;;;;;;5092607;28;20108;-57
2021/04/30 13:50:06;;;;;;;17.02;15.18;;;;;;;;;;5093440;28;20028;-58
2021/04/30 13:53:01;;;;;;;17.40;15.15;;;;;;;;;;5093800;28;20374;-58
2021/04/30 13:55:31;;;;;;;16.13;14.60;;;;;;;;;;5093850;28;20377;-58
2021/04/30 13:58:00;;;;;;;16.27;14.15;;;;;;;;;;5093294;28;20027;-57
2021/04/30 14:00:32;;;;;;;16.75;14.70;;;;;;;;;;5093987;28;20024;-57
2021/04/30 14:02:59;;;;;;;15.75;14.18;;;;;;;;;;5093927;28;20103;-57
2021/04/30 14:05:28;;;;;;;16.95;14.73;;;;;;;;;;5093942;28;20020;-58
2021/04/30 14:08:00;;;;;;;17.50;15.73;;;;;;;;;;5093802;28;20093;-58
2021/04/30 14:10:32;;;;;;;17.40;13.57;;;;;;;;;;5093494;28;20024;-58
2021/04/30 14:13:03;;;;;;;16.95;15.18;;;;;;;;;;5091598;28;20040;-58
2021/04/30 14:15:32;;;;;;;17.98;16.08;;;;;;;;;;5091844;28;20035;-57
2021/04/30 14:18:05;;;;;;;17.15;15.20;;;;;;;;;;5092423;28;20024;-58
2021/04/30 14:20:41;;;;;;;17.73;15.00;;;;;;;;;;5093534;28;20024;-58
2021/04/30 14:23:16;;;;;;;19.13;15.77;;;;;;;;;;5093989;28;20030;-58
2021/04/30 14:25:43;;;;;;;17.20;14.00;;;;;;;;;;5093486;28;20574;-58
2021/04/30 14:28:13;;;;;;;16.08;14.32;;;;;;;;;;5092843;28;20032;-58
2021/04/30 14:30:45;;;;;;;16.48;14.82;;;;;;;;;;5091519;28;20123;-58
2021/04/30 14:33:17;;;;;;;19.42;16.60;;;;;;;;;;5091610;28;20028;-58
2021/04/30 14:35:43;;;;;;;20.45;14.55;;;;;;;;;;5092229;28;20423;-58
2021/04/30 14:38:17;;;;;;;17.05;14.55;;;;;;;;;;5093062;28;20476;-58
2021/04/30 14:40:46;;;;;;;15.77;13.93;;;;;;;;;;5091849;28;20403;-58
2021/04/30 14:43:15;;;;;;;18.17;16.17;;;;;;;;;;5091900;28;20073;-58
2021/04/30 14:45:44;;;;;;;15.95;14.07;;;;;;;;;;5091795;28;20563;-58